Purcell, Oklahoma
Current Conditions -  °F | °C
As of 4:35 AM on Friday 24 Oct 2014 (Local Time) from KOUN Reporting Station
Clear Clear  
Wind Chill: 57°   Ceiling: Unl
Heat Index: 57°   Visibility: 10mi
Dew Point: 57°   Wind: 6mph
Humidity: 100%   Direction: 140°SE
Pressure: 30.1"   Gusts: NA
Location:  35.01°N, 97.36°W
Report Text: KOUN 240935Z AUTO 14005KT 10SM CLR 14/14 A3010 RMK AO2
Loading
Personal Weather Stations






























Interactive Weather Map
Tropical Storm Tracking
New forecast layout! Learn more

10-Day Weather Forecast

Advertisements
Track Severe Weather on mobile